createdAt,value
2023-01-17T04:30:17.690Z,98955.79
2023-01-17T04:32:44.774Z,98945.11
2023-01-17T04:33:54.152Z,98947.95
2023-01-17T04:35:06.422Z,98946.45
2023-01-17T04:36:15.717Z,98954.73
2023-01-17T04:37:24.859Z,98954.78
2023-01-17T04:38:35.844Z,98961.23
2023-01-17T04:39:45.300Z,98953.66
2023-01-17T04:40:54.176Z,98967.14
2023-01-17T04:42:03.934Z,98951.58
2023-01-17T04:43:12.482Z,98949.00
2023-01-17T04:44:20.989Z,98953.86
2023-01-17T04:45:29.530Z,98970.39
2023-01-17T04:46:38.979Z,98966.69
2023-01-17T04:47:47.973Z,98959.45
2023-01-17T04:48:57.788Z,98956.69
2023-01-17T04:50:07.774Z,98960.77
2023-01-17T04:51:17.157Z,98959.92
2023-01-17T04:52:25.805Z,98957.27
2023-01-17T04:53:34.497Z,98971.41
2023-01-17T04:54:45.462Z,98961.71
2023-01-17T04:55:54.088Z,98964.37
2023-01-17T04:57:03.409Z,98947.20
2023-01-17T04:58:12.498Z,98966.66
2023-01-17T04:59:22.896Z,98953.46
2023-01-17T05:00:31.743Z,98948.87
2023-01-17T05:01:41.085Z,98956.70
2023-01-17T05:02:52.508Z,98958.68
2023-01-17T05:05:17.468Z,98945.91
2023-01-17T05:06:26.953Z,98957.34
2023-01-17T05:07:35.988Z,98953.73
2023-01-17T05:10:11.790Z,98955.34
2023-01-17T05:11:21.261Z,98953.16
2023-01-17T05:12:31.957Z,98954.88
2023-01-17T05:13:41.050Z,98948.04
2023-01-17T05:14:50.810Z,98954.88
2023-01-17T05:15:59.789Z,98949.35
2023-01-17T05:17:10.654Z,98950.13
2023-01-17T05:18:19.599Z,98950.30
2023-01-17T05:20:45.324Z,98943.25
2023-01-17T05:21:54.725Z,98947.73
2023-01-17T05:23:03.836Z,98942.62
2023-01-17T05:24:12.353Z,98943.77
2023-01-17T05:25:26.932Z,98947.37
2023-01-17T05:26:35.548Z,98941.30
2023-01-17T05:29:00.333Z,98930.52
2023-01-17T05:30:11.889Z,98950.30
2023-01-17T05:31:20.832Z,98947.53
2023-01-17T05:32:29.423Z,98941.06
2023-01-17T05:33:38.440Z,98945.64
2023-01-17T05:34:50.533Z,98932.03
2023-01-17T05:35:59.649Z,98933.85
2023-01-17T05:37:09.139Z,98935.37
2023-01-17T05:38:18.198Z,98935.16
2023-01-17T05:39:27.952Z,98925.19
2023-01-17T05:40:36.449Z,98925.82
2023-01-17T05:41:52.781Z,98941.05
2023-01-17T05:43:03.813Z,98945.50
2023-01-17T05:44:14.715Z,98920.11
2023-01-17T05:45:25.811Z,98927.16
2023-01-17T05:46:34.924Z,98929.14
2023-01-17T05:47:45.517Z,98934.37
2023-01-17T05:48:54.342Z,98932.75
2023-01-17T05:50:04.655Z,98932.19
2023-01-17T05:51:14.772Z,98933.06
2023-01-17T05:52:23.092Z,98936.00
2023-01-17T05:53:31.756Z,98925.46
2023-01-17T05:54:40.067Z,98942.41
2023-01-17T05:55:50.417Z,98929.20
2023-01-17T05:56:59.759Z,98936.41
2023-01-17T05:58:09.940Z,98946.48
2023-01-17T05:59:28.745Z,98936.62
2023-01-17T06:00:29.916Z,98931.09
2023-01-17T06:01:38.543Z,98942.51
2023-01-17T06:02:47.923Z,98939.84
2023-01-17T06:03:56.674Z,98939.17
2023-01-17T06:05:06.159Z,98940.13
2023-01-17T06:06:15.883Z,98933.65
2023-01-17T06:07:24.210Z,98951.23
2023-01-17T06:08:32.984Z,98966.53
2023-01-17T06:09:41.448Z,98942.41
2023-01-17T06:10:50.884Z,98944.09
2023-01-17T06:12:00.068Z,98950.29
2023-01-17T06:13:15.066Z,98940.48
2023-01-17T06:14:24.558Z,98946.22
2023-01-17T06:15:36.364Z,98950.48
2023-01-17T06:16:46.677Z,98941.63
2023-01-17T06:17:54.981Z,98967.41
2023-01-17T06:19:04.152Z,98938.23
2023-01-17T06:20:12.674Z,98952.17
2023-01-17T06:21:20.919Z,98952.48
2023-01-17T06:22:30.331Z,98964.17
2023-01-17T06:23:38.704Z,98959.05
2023-01-17T06:24:47.538Z,98950.50
2023-01-17T06:25:56.310Z,98952.11
2023-01-17T06:28:22.870Z,98950.65
2023-01-17T06:29:31.165Z,98953.89
2023-01-17T06:30:40.025Z,98971.78
2023-01-17T06:31:48.568Z,98963.80
2023-01-17T06:32:57.132Z,98973.56
2023-01-17T06:34:06.520Z,98969.02
2023-01-17T06:35:15.119Z,98972.42
2023-01-17T06:36:24.971Z,98974.23
2023-01-17T06:37:34.416Z,98976.49
2023-01-17T06:38:44.096Z,98983.53
2023-01-17T06:39:53.370Z,98975.65
2023-01-17T06:41:06.139Z,98985.25
2023-01-17T06:42:15.613Z,98978.95
2023-01-17T06:43:23.947Z,98982.48
2023-01-17T06:44:32.984Z,98980.67
2023-01-17T06:45:42.447Z,98965.37
2023-01-17T06:46:51.021Z,98966.98
2023-01-17T06:48:00.869Z,98974.20
2023-01-17T06:49:09.195Z,98966.11
2023-01-17T06:50:17.803Z,98973.81
2023-01-17T06:51:27.437Z,98982.08
2023-01-17T06:52:35.845Z,98966.67
2023-01-17T06:53:45.429Z,98979.31
2023-01-17T06:54:54.266Z,98965.06
2023-01-17T06:56:04.217Z,98984.64
2023-01-17T06:57:13.309Z,98970.59
2023-01-17T06:58:23.182Z,98976.02
2023-01-17T06:59:31.876Z,98985.15
2023-01-17T07:00:41.261Z,98985.15
2023-01-17T07:01:51.212Z,98970.02
2023-01-17T07:03:00.827Z,98971.33
2023-01-17T07:04:11.220Z,98972.41
2023-01-17T07:05:20.146Z,98969.08
2023-01-17T07:06:28.504Z,98985.78
2023-01-17T07:07:37.121Z,98962.98
2023-01-17T07:08:47.937Z,98975.14
2023-01-17T07:09:56.253Z,98969.92
2023-01-17T07:11:07.798Z,98964.49
2023-01-17T07:12:16.481Z,98970.69
2023-01-17T07:13:26.022Z,98979.05
2023-01-17T07:14:34.967Z,98980.03
2023-01-17T07:15:45.522Z,98957.66
2023-01-17T07:16:56.058Z,98968.30
2023-01-17T07:18:05.141Z,98969.28
2023-01-17T07:19:14.391Z,98954.92
2023-01-17T07:20:23.205Z,98977.16
2023-01-17T07:21:32.135Z,98958.63
2023-01-17T07:22:42.340Z,98971.48
2023-01-17T07:23:50.665Z,98970.33
2023-01-17T07:24:59.441Z,98964.33
2023-01-17T07:26:10.326Z,98979.46
2023-01-17T07:27:18.660Z,98959.89
2023-01-17T07:28:27.714Z,98965.64
2023-01-17T07:29:36.047Z,98964.42
2023-01-17T07:30:44.939Z,98957.07
2023-01-17T07:31:57.745Z,98969.54
2023-01-17T07:33:07.609Z,98972.41
2023-01-17T07:34:16.045Z,98963.44
2023-01-17T07:35:28.602Z,98963.55
2023-01-17T07:36:37.130Z,98959.73
2023-01-17T07:37:49.430Z,98956.23
2023-01-17T07:38:58.650Z,98969.23
2023-01-17T07:40:08.448Z,98952.10
2023-01-17T07:41:17.367Z,98962.95
2023-01-17T07:42:26.099Z,98965.83
2023-01-17T07:43:35.105Z,98949.19
2023-01-17T07:46:02.163Z,98958.09
2023-01-17T07:47:12.131Z,98955.36
2023-01-17T07:49:26.276Z,98957.42
2023-01-17T07:50:36.831Z,98968.03
2023-01-17T14:21:46.142Z,98698.88
2023-01-17T14:23:01.766Z,98691.11
2023-01-17T14:24:17.162Z,98705.06
2023-01-17T14:26:58.679Z,98683.14
2023-01-17T14:29:50.533Z,98674.77
2023-01-17T14:31:02.583Z,98680.19
2023-01-17T14:33:41.645Z,98662.93
2023-01-17T14:34:52.721Z,98684.00
2023-01-17T14:36:05.040Z,98673.91
2023-01-17T14:37:20.408Z,98675.30
2023-01-17T14:38:32.063Z,98680.30
2023-01-17T14:39:46.618Z,98690.31
2023-01-17T14:41:02.294Z,98682.00
2023-01-17T14:43:32.826Z,98664.98
2023-01-17T14:44:51.093Z,98686.80
2023-01-17T14:46:03.896Z,98682.75
2023-01-17T14:48:32.160Z,98673.71
2023-01-17T14:49:46.636Z,98675.08
2023-01-17T14:52:17.443Z,98671.39
2023-01-17T14:54:48.835Z,98673.06
2023-01-17T14:56:00.849Z,98691.30
2023-01-17T14:58:42.746Z,98682.20
2023-01-17T14:59:51.764Z,98690.63
2023-01-17T15:02:22.352Z,98686.42
2023-01-17T15:03:35.387Z,98692.75
2023-01-17T15:06:14.133Z,98684.52
2023-01-17T15:07:23.902Z,98686.23
2023-01-17T15:08:36.087Z,98683.23
2023-01-17T15:09:46.619Z,98678.55
2023-01-17T15:11:00.633Z,98683.98
2023-01-17T15:12:14.768Z,98685.70
2023-01-17T15:13:44.264Z,98678.08
2023-01-17T15:14:47.411Z,98693.01
2023-01-17T15:16:09.362Z,98672.44
2023-01-17T15:17:23.622Z,98684.05
2023-01-17T15:18:36.277Z,98690.98
2023-01-17T15:21:10.018Z,98660.13
2023-01-17T15:22:20.049Z,98682.98
2023-01-17T15:24:50.602Z,98674.09
2023-01-17T15:26:01.434Z,98672.44
2023-01-17T15:27:14.439Z,98685.77
2023-01-17T15:28:24.500Z,98676.17
2023-01-17T15:29:35.862Z,98678.61
2023-01-17T15:31:05.043Z,98680.32
2023-01-17T15:32:24.520Z,98679.97
2023-01-17T15:33:35.129Z,98682.41
2023-01-17T15:34:46.354Z,98678.06
2023-01-17T15:37:40.865Z,98677.88
2023-01-17T15:38:57.648Z,98683.57
2023-01-17T15:40:19.027Z,98670.00
2023-01-17T15:45:46.690Z,98674.08
2023-01-17T15:46:55.737Z,98671.48
2023-01-17T15:49:44.241Z,98662.69
2023-01-17T15:50:59.990Z,98673.91
2023-01-17T15:52:16.264Z,98677.42
2023-01-17T15:53:31.957Z,98681.80
2023-01-17T15:56:22.307Z,98672.44
2023-01-17T15:58:52.675Z,98665.91
2023-01-17T16:00:13.955Z,98669.50
2023-01-17T16:02:44.099Z,98675.59
2023-01-17T16:03:54.979Z,98673.75
2023-01-17T16:05:34.615Z,98677.14
2023-01-17T16:06:46.283Z,98683.31
2023-01-17T16:07:58.312Z,98682.36
2023-01-17T16:10:28.639Z,98694.66
2023-01-17T16:13:01.037Z,98691.27
2023-01-17T22:19:53.514Z,98868.27
2023-01-17T22:21:15.824Z,98871.88
2023-01-17T22:22:25.557Z,98882.88
2023-01-17T22:23:35.593Z,98876.96
2023-01-17T22:26:05.671Z,98880.47
2023-01-17T22:28:32.616Z,98872.02
2023-01-17T22:29:41.128Z,98879.94
2023-01-17T22:30:49.788Z,98875.44
2023-01-17T22:31:58.676Z,98875.55
2023-01-17T22:33:07.700Z,98880.02
2023-01-17T22:34:18.758Z,98878.31
2023-01-17T22:35:28.304Z,98879.46
2023-01-17T22:36:37.216Z,98878.05
2023-01-17T22:37:45.850Z,98871.23
2023-01-17T22:38:56.107Z,98868.94
2023-01-17T22:40:07.119Z,98863.30
2023-01-17T22:42:39.245Z,98865.66
2023-01-17T22:43:50.920Z,98863.42
2023-01-17T22:45:00.914Z,98862.11
2023-01-17T22:47:27.046Z,98870.98
2023-01-17T22:48:37.604Z,98867.06
2023-01-17T22:49:46.124Z,98865.87
2023-01-17T22:51:02.172Z,98869.14
2023-01-17T22:53:27.337Z,98871.17
2023-01-17T22:54:36.853Z,98866.31
2023-01-17T22:55:45.802Z,98868.74
2023-01-17T22:56:54.981Z,98875.32
2023-01-17T22:58:04.081Z,98870.09
2023-01-17T22:59:13.272Z,98862.59
2023-01-17T23:00:23.038Z,98862.59
2023-01-17T23:01:34.284Z,98857.01
2023-01-17T23:02:43.341Z,98873.80
2023-01-17T23:03:55.785Z,98864.78
2023-01-17T23:06:27.592Z,98862.52
2023-01-17T23:09:02.330Z,98866.06
2023-01-17T23:12:58.617Z,98871.77
2023-01-17T23:14:14.820Z,98868.95
2023-01-17T23:15:42.523Z,98875.41
2023-01-17T23:17:17.228Z,98874.20
2023-01-17T23:19:59.026Z,98874.34
2023-01-17T23:21:08.361Z,98874.30
2023-01-17T23:22:21.041Z,98873.45
2023-01-17T23:23:33.541Z,98879.64
2023-01-17T23:24:44.787Z,98882.23
2023-01-17T23:27:48.106Z,98868.13
2023-01-17T23:28:57.721Z,98881.36
2023-01-17T23:31:27.113Z,98891.34
2023-01-17T23:32:43.109Z,98886.82
2023-01-17T23:33:51.680Z,98886.94
2023-01-17T23:35:01.771Z,98888.66
2023-01-17T23:36:12.205Z,98891.45
2023-01-17T23:37:20.948Z,98897.88
2023-01-17T23:38:30.060Z,98888.98
2023-01-17T23:39:40.312Z,98890.81
2023-01-17T23:41:08.039Z,98891.53
2023-01-17T23:42:36.863Z,98884.63
2023-01-17T23:43:54.956Z,98888.39
2023-01-17T23:46:21.876Z,98893.64
